Terminal Aerodrome Forecast
Issued by NWS

Home | Current Version | Previous Version | Text Only | Print | Product List | Glossary On
Versions: 1 2 3 4 5 6 7 8 9 10 11 12 13 14 15 16 17 18 19 20 21 22
000
FTUS43 KILX 071728
TAFDEC
TAF
KDEC 071728Z 0718/0818 02012KT 4SM HZ OVC006
     FM071900 02012KT 6SM HZ SCT007 OVC015
     FM072100 03009KT P6SM BKN035
     FM081000 05005KT 3SM -SHRA BR SCT008 OVC012=

USA.gov is the U.S. government's official web portal to all federal, state and local government web resources and services.